Howard City, MI (49329)

10:08 AM EDT on September 04, 2015 (GMT -0400)
Ensley Center - Snow Farm | | Change Station
CLOSE
Current Station
Personal Weather Station
Location: Howard City, MI
Elevation: 982 ft
Nearby Weather Stations

Elev 982 ft 43.36 °N, 85.62 °W | Updated 11 minutes ago

Overcast
Overcast
68.7 °F
Feels Like 68.7 °F
N
4.7
Wind Variable Wind from East

Today
High -- | Low -- °F
--% Chance of Precip.
Yesterday
High -- | Low -- °F
Precip. -- in
7:08 AM 8:12 PM
Waning Gibbous, 59% visible
Pressure 30.01 in
Visibility 7.0 miles
Clouds Overcast 500 ft
Dew Point 67 °F
Humidity 93%
Rainfall 0.04 in
Snow Depth Not available.
UV 1 out of 12
Pollen 8.40 out of 12
Air Quality Not available.
Flu Activity Not available.
METAR KRQB 041354Z AUTO 08005KT 7SM OVC005 20/20 A3001 RMK AO2 T02000195
Pressure 30.01 in
Visibility 7.0 miles
Clouds Overcast 500 ft
Dew Point 67 °F
Humidity 93%
Rainfall 0.04 in
Snow Depth Not available.
UV 1 out of 12
Pollen 8.40 out of 12
Air Quality Not available.
Flu Activity Not available.
METAR KRQB 041354Z AUTO 08005KT 7SM OVC005 20/20 A3001 RMK AO2 T02000195

10-Day Weather Forecast

×

Almanac

Astronomy

Sep. 04, 2015 Rise Set
Actual Time
Civil Twilight
Nautical Twilight
Astronomical Twilight
Moon
Length of Visible Light
Length of Day
Tomorrow will be .
, % of the Moon is Illuminated

Today's Extremes

State Highs State Lows

Community

WunderPhotos

Upload Photos

1,852,182 photos uploaded!

WunderBlogs® & News

Nearby

Air Quality

  Air Quality AQ Index Pollutant
Not available.

Snow Depth

Station Depth Elevation

Earthquake Activity

City Distance Mag. Time & Date
Minimum magnitude displayed is 2.5.

Coastal Water Temperatures

Place Temperature

Stations

Nearby Weather Stations

Station Location Temp. Windchill Dew Point Humidity Wind Precip. Elev Updated Type